createdAt,value
2018-12-30T00:01:34.885Z,98681.83
2018-12-30T00:04:07.139Z,98682.80
2018-12-30T00:06:40.255Z,98687.22
2018-12-30T00:09:12.871Z,98680.88
2018-12-30T00:11:45.033Z,98681.39
2018-12-30T00:14:17.341Z,98674.28
2018-12-30T00:16:49.787Z,98683.36
2018-12-30T00:19:21.994Z,98687.20
2018-12-30T00:21:54.166Z,98686.64
2018-12-30T00:24:26.546Z,98688.98
2018-12-30T00:26:58.783Z,98688.47
2018-12-30T00:29:30.990Z,98691.61
2018-12-30T00:32:03.583Z,98688.30
2018-12-30T00:34:35.842Z,98688.64
2018-12-30T00:37:08.005Z,98686.99
2018-12-30T00:39:40.311Z,98684.94
2018-12-30T00:42:12.540Z,98681.14
2018-12-30T00:44:44.866Z,98674.23
2018-12-30T00:47:17.309Z,98683.51
2018-12-30T00:49:49.669Z,98686.23
2018-12-30T00:52:21.913Z,98683.30
2018-12-30T00:54:54.238Z,98690.47
2018-12-30T00:57:26.681Z,98687.96
2018-12-30T00:59:58.896Z,98683.45
2018-12-30T01:02:31.051Z,98687.33
2018-12-30T01:05:03.349Z,98680.67
2018-12-30T01:07:36.285Z,98680.64
2018-12-30T01:10:09.537Z,98686.24
2018-12-30T01:12:41.967Z,98682.98
2018-12-30T01:15:14.345Z,98676.97
2018-12-30T01:17:46.540Z,98688.58
2018-12-30T01:20:18.927Z,98681.13
2018-12-30T01:22:51.164Z,98690.94
2018-12-30T01:25:23.574Z,98701.54
2018-12-30T01:27:55.847Z,98704.56
2018-12-30T01:30:28.617Z,98705.52
2018-12-30T01:33:00.845Z,98715.67
2018-12-30T01:35:33.057Z,98710.44
2018-12-30T01:38:05.427Z,98714.56
2018-12-30T01:40:37.924Z,98719.08
2018-12-30T01:43:10.135Z,98720.30
2018-12-30T01:45:42.399Z,98721.20
2018-12-30T01:48:14.717Z,98719.94
2018-12-30T01:50:46.977Z,98722.92
2018-12-30T01:53:19.222Z,98717.05
2018-12-30T01:55:51.484Z,98713.16
2018-12-30T01:58:23.727Z,98719.08
2018-12-30T02:00:56.042Z,98721.23
2018-12-30T02:03:28.275Z,98723.04
2018-12-30T02:06:00.576Z,98719.75
2018-12-30T02:08:32.736Z,98728.20
2018-12-30T02:11:05.052Z,98731.02
2018-12-30T02:13:37.382Z,98725.11
2018-12-30T02:16:09.700Z,98730.11
2018-12-30T02:18:41.969Z,98732.55
2018-12-30T02:21:14.184Z,98733.59
2018-12-30T02:23:46.451Z,98735.45
2018-12-30T02:26:18.671Z,98741.17
2018-12-30T02:28:50.838Z,98733.25
2018-12-30T02:31:23.133Z,98739.42
2018-12-30T02:33:55.375Z,98739.89
2018-12-30T02:36:27.592Z,98738.51
2018-12-30T02:38:59.821Z,98747.20
2018-12-30T02:41:32.029Z,98744.65
2018-12-30T02:44:04.299Z,98734.78
2018-12-30T02:46:36.520Z,98734.28
2018-12-30T02:49:08.678Z,98733.34
2018-12-30T02:51:40.899Z,98731.36
2018-12-30T02:54:13.065Z,98727.11
2018-12-30T02:56:45.511Z,98735.53
2018-12-30T02:59:17.742Z,98729.77
2018-12-30T03:01:49.955Z,98725.08
2018-12-30T03:04:22.212Z,98722.98
2018-12-30T03:06:54.418Z,98720.92
2018-12-30T03:09:26.581Z,98724.27
2018-12-30T03:11:58.889Z,98724.42
2018-12-30T03:14:31.057Z,98721.67
2018-12-30T03:17:03.271Z,98720.55
2018-12-30T03:19:35.489Z,98721.16
2018-12-30T03:22:07.705Z,98718.38
2018-12-30T03:24:40.027Z,98716.09
2018-12-30T03:27:12.324Z,98714.57
2018-12-30T03:29:44.544Z,98720.27
2018-12-30T03:32:16.741Z,98721.16
2018-12-30T03:34:48.955Z,98717.03
2018-12-30T03:37:21.162Z,98720.54
2018-12-30T03:39:53.377Z,98714.92
2018-12-30T03:42:25.542Z,98715.55
2018-12-30T03:44:57.760Z,98713.13
2018-12-30T03:47:29.944Z,98721.41
2018-12-30T03:50:02.166Z,98711.45
2018-12-30T03:52:34.399Z,98716.62
2018-12-30T03:55:07.086Z,98715.57
2018-12-30T03:57:39.353Z,98717.16
2018-12-30T04:00:11.874Z,98710.42
2018-12-30T04:02:44.129Z,98711.39
2018-12-30T04:05:16.449Z,98715.14
2018-12-30T04:07:48.714Z,98720.58
2018-12-30T04:10:20.927Z,98720.97
2018-12-30T04:12:53.097Z,98718.38
2018-12-30T04:15:25.308Z,98725.05
2018-12-30T04:17:57.462Z,98722.83
2018-12-30T04:20:29.663Z,98724.80
2018-12-30T04:23:01.827Z,98733.13
2018-12-30T04:25:34.037Z,98740.86
2018-12-30T04:28:06.399Z,98742.97
2018-12-30T04:30:38.725Z,98740.02
2018-12-30T04:33:10.888Z,98743.69
2018-12-30T04:35:43.213Z,98735.02
2018-12-30T04:38:15.378Z,98737.64
2018-12-30T04:40:47.590Z,98741.03
2018-12-30T04:43:19.808Z,98739.22
2018-12-30T04:45:52.155Z,98743.51
2018-12-30T04:48:24.318Z,98748.33
2018-12-30T04:50:56.635Z,98742.03
2018-12-30T04:53:28.803Z,98746.14
2018-12-30T04:56:01.043Z,98748.54
2018-12-30T04:58:33.212Z,98749.48
2018-12-30T05:01:05.433Z,98754.94
2018-12-30T05:03:37.590Z,98758.66
2018-12-30T05:06:09.794Z,98758.90
2018-12-30T05:08:41.959Z,98762.38
2018-12-30T05:11:14.165Z,98764.73
2018-12-30T05:13:46.345Z,98767.76
2018-12-30T05:16:18.555Z,98776.64
2018-12-30T05:18:50.720Z,98769.73
2018-12-30T05:21:22.940Z,98764.59
2018-12-30T05:23:55.201Z,98767.34
2018-12-30T05:26:27.519Z,98764.36
2018-12-30T05:28:59.677Z,98757.59
2018-12-30T05:31:31.898Z,98761.56
2018-12-30T05:34:04.051Z,98767.59
2018-12-30T05:36:36.265Z,98774.36
2018-12-30T05:39:09.125Z,98779.00
2018-12-30T05:41:41.335Z,98784.28
2018-12-30T05:44:13.509Z,98784.50
2018-12-30T05:46:45.724Z,98785.53
2018-12-30T05:49:17.876Z,98796.94
2018-12-30T05:51:50.085Z,98799.77
2018-12-30T05:54:22.356Z,98801.86
2018-12-30T05:56:54.620Z,98799.27
2018-12-30T05:59:26.775Z,98801.20
2018-12-30T06:01:58.988Z,98810.47
2018-12-30T06:04:31.148Z,98808.34
2018-12-30T06:07:03.363Z,98819.07
2018-12-30T06:09:35.527Z,98809.79
2018-12-30T06:12:07.742Z,98824.38
2018-12-30T06:14:39.907Z,98827.48
2018-12-30T06:17:12.114Z,98836.03
2018-12-30T06:19:44.269Z,98836.69
2018-12-30T06:22:16.575Z,98837.38
2018-12-30T06:24:48.740Z,98845.22
2018-12-30T06:27:20.948Z,98851.56
2018-12-30T06:29:53.128Z,98859.47
2018-12-30T06:32:25.445Z,98865.92
2018-12-30T06:34:57.926Z,98875.02
2018-12-30T06:37:30.130Z,98866.80
2018-12-30T06:40:02.292Z,98871.55
2018-12-30T06:42:34.504Z,98879.69
2018-12-30T06:45:07.065Z,98894.89
2018-12-30T06:47:39.269Z,98891.86
2018-12-30T06:50:11.532Z,98905.07
2018-12-30T06:52:43.739Z,98905.84
2018-12-30T06:55:15.907Z,98919.94
2018-12-30T06:57:48.162Z,98930.34
2018-12-30T07:00:20.327Z,98935.05
2018-12-30T07:02:52.528Z,98934.30
2018-12-30T07:05:24.798Z,98935.90
2018-12-30T07:07:57.015Z,98949.44
2018-12-30T07:10:29.170Z,98963.78
2018-12-30T07:13:01.385Z,98961.24
2018-12-30T07:15:33.651Z,98961.27
2018-12-30T07:18:05.862Z,98973.15
2018-12-30T07:20:38.026Z,98981.10
2018-12-30T07:23:10.246Z,98976.41
2018-12-30T07:25:42.412Z,98988.23
2018-12-30T07:28:14.624Z,98989.48
2018-12-30T07:30:46.936Z,98987.27
2018-12-30T07:33:19.150Z,98993.58
2018-12-30T07:35:51.311Z,98995.41
2018-12-30T07:38:23.519Z,98993.58
2018-12-30T07:40:55.788Z,99008.38
2018-12-30T07:43:28.080Z,99001.11
2018-12-30T07:46:00.340Z,99000.77
2018-12-30T07:48:32.641Z,99004.20
2018-12-30T07:51:04.808Z,99002.73
2018-12-30T07:53:37.020Z,99008.81
2018-12-30T07:56:09.228Z,99013.62
2018-12-30T07:58:41.439Z,99013.96
2018-12-30T08:01:13.604Z,99016.81
2018-12-30T08:03:45.812Z,99017.16
2018-12-30T08:06:17.985Z,99016.77
2018-12-30T08:08:50.377Z,99017.68
2018-12-30T08:11:22.641Z,99023.76
2018-12-30T08:13:54.853Z,99031.05
2018-12-30T08:16:27.025Z,99037.07
2018-12-30T08:18:59.232Z,99039.10
2018-12-30T08:21:31.393Z,99036.42
2018-12-30T08:24:03.599Z,99041.50
2018-12-30T08:26:35.762Z,99048.97
2018-12-30T08:29:07.970Z,99055.84
2018-12-30T08:31:40.131Z,99060.79
2018-12-30T08:34:12.334Z,99057.34
2018-12-30T08:36:44.500Z,99064.11
2018-12-30T08:39:16.704Z,99068.73
2018-12-30T08:41:48.867Z,99073.39
2018-12-30T08:44:21.076Z,99085.30
2018-12-30T08:46:53.301Z,99083.58
2018-12-30T08:49:25.539Z,99095.02
2018-12-30T08:51:57.708Z,99094.47
2018-12-30T08:54:29.914Z,99106.47
2018-12-30T08:57:02.302Z,99103.06
2018-12-30T08:59:34.518Z,99110.55
2018-12-30T09:02:06.889Z,99119.30
2018-12-30T09:04:39.196Z,99119.06
2018-12-30T09:07:11.384Z,99124.91
2018-12-30T09:09:43.739Z,99127.42
2018-12-30T09:12:15.909Z,99124.50
2018-12-30T09:14:48.121Z,99131.01
2018-12-30T09:17:20.286Z,99133.27
2018-12-30T09:19:52.490Z,99140.33
2018-12-30T09:22:24.731Z,99148.54
2018-12-30T09:24:56.942Z,99143.64
2018-12-30T09:27:29.092Z,99153.22
2018-12-30T09:30:01.310Z,99150.02
2018-12-30T09:32:33.466Z,99163.80
2018-12-30T09:35:06.109Z,99153.94
2018-12-30T09:37:38.276Z,99157.45
2018-12-30T09:40:10.796Z,99158.94
2018-12-30T09:42:42.958Z,99167.73
2018-12-30T09:45:15.269Z,99157.05
2018-12-30T09:47:47.429Z,99169.55
2018-12-30T09:50:19.839Z,99176.95
2018-12-30T09:52:52.001Z,99173.94
2018-12-30T09:55:24.276Z,99175.70
2018-12-30T09:57:56.480Z,99183.52
2018-12-30T10:00:28.791Z,99180.80
2018-12-30T10:03:00.949Z,99186.30
2018-12-30T10:05:33.162Z,99192.21
2018-12-30T10:08:05.425Z,99196.13
2018-12-30T10:10:37.839Z,99196.11
2018-12-30T10:13:10.005Z,99189.82
2018-12-30T10:15:42.231Z,99182.92
2018-12-30T10:18:14.422Z,99185.00
2018-12-30T10:20:46.635Z,99189.45
2018-12-30T10:23:18.808Z,99189.31
2018-12-30T10:25:51.186Z,99183.61
2018-12-30T10:28:23.352Z,99190.70
2018-12-30T10:30:55.757Z,99185.60
2018-12-30T10:33:27.920Z,99186.73
2018-12-30T10:36:00.124Z,99185.77
2018-12-30T10:38:32.507Z,99190.47
2018-12-30T10:41:04.861Z,99190.44
2018-12-30T10:43:37.258Z,99190.76
2018-12-30T10:46:09.681Z,99199.21
2018-12-30T10:48:41.840Z,99199.98
2018-12-30T10:51:14.045Z,99199.69
2018-12-30T10:53:46.239Z,99194.34
2018-12-30T10:56:18.497Z,99200.58
2018-12-30T10:58:50.743Z,99194.84
2018-12-30T11:01:23.055Z,99199.44
2018-12-30T11:03:55.223Z,99207.02
2018-12-30T11:06:27.673Z,99195.20
2018-12-30T11:08:59.966Z,99196.30
2018-12-30T11:11:32.416Z,99198.55
2018-12-30T11:14:04.705Z,99198.70
2018-12-30T11:16:36.915Z,99192.28
2018-12-30T11:19:09.081Z,99190.25
2018-12-30T11:21:41.301Z,99182.53
2018-12-30T11:24:13.571Z,99192.20
2018-12-30T11:26:45.789Z,99178.73
2018-12-30T11:29:18.048Z,99184.08
2018-12-30T11:31:50.363Z,99179.81
2018-12-30T11:34:22.526Z,99184.62
2018-12-30T11:36:54.740Z,99187.91
2018-12-30T11:39:26.904Z,99180.28
2018-12-30T11:41:59.122Z,99179.86
2018-12-30T11:44:31.284Z,99175.82
2018-12-30T11:47:05.051Z,99180.58
2018-12-30T11:49:37.216Z,99184.56
2018-12-30T11:52:09.420Z,99193.08
2018-12-30T11:54:41.687Z,99182.43
2018-12-30T11:57:13.942Z,99185.06
2018-12-30T11:59:46.156Z,99184.00
2018-12-30T12:02:24.056Z,99182.37
2018-12-30T12:04:52.473Z,99191.59
2018-12-30T12:07:24.695Z,99188.42
2018-12-30T12:09:56.890Z,99190.33
2018-12-30T12:12:29.110Z,99190.11
2018-12-30T12:15:01.423Z,99190.68
2018-12-30T12:17:33.642Z,99183.77
2018-12-30T12:20:06.394Z,99183.84
2018-12-30T12:22:38.613Z,99196.44
2018-12-30T12:25:10.817Z,99193.58
2018-12-30T12:27:43.049Z,99191.41
2018-12-30T12:30:15.405Z,99194.63
2018-12-30T12:32:47.658Z,99189.50
2018-12-30T12:35:19.908Z,99192.16
2018-12-30T12:37:52.120Z,99196.00
2018-12-30T12:40:24.355Z,99193.69
2018-12-30T12:42:56.563Z,99192.09
2018-12-30T12:45:28.771Z,99204.39
2018-12-30T12:48:00.990Z,99197.55
2018-12-30T12:50:33.207Z,99198.77
2018-12-30T12:53:05.513Z,99202.06
2018-12-30T12:55:37.741Z,99207.75
2018-12-30T12:58:10.061Z,99212.33
2018-12-30T13:00:42.264Z,99213.29
2018-12-30T13:03:16.161Z,99214.14
2018-12-30T13:05:48.671Z,99217.64
2018-12-30T13:08:20.971Z,99217.47
2018-12-30T13:10:55.397Z,99217.06
2018-12-30T13:13:27.605Z,99218.22
2018-12-30T13:16:03.946Z,99218.30
2018-12-30T13:18:36.334Z,99215.97
2018-12-30T13:21:08.539Z,99220.02
2018-12-30T13:23:40.750Z,99222.74
2018-12-30T13:26:12.954Z,99222.58
2018-12-30T13:28:45.271Z,99223.64
2018-12-30T13:31:17.483Z,99219.00
2018-12-30T13:33:49.908Z,99227.03
2018-12-30T13:36:23.230Z,99237.13
2018-12-30T13:38:55.453Z,99229.76
2018-12-30T13:41:27.672Z,99230.43
2018-12-30T13:43:59.886Z,99229.00
2018-12-30T13:46:32.598Z,99231.73
2018-12-30T13:49:04.910Z,99229.14
2018-12-30T13:51:37.111Z,99226.63
2018-12-30T13:54:09.396Z,99227.89
2018-12-30T13:56:41.604Z,99222.77
2018-12-30T13:59:13.860Z,99219.12
2018-12-30T14:01:46.068Z,99228.25
2018-12-30T14:04:18.389Z,99226.17
2018-12-30T14:06:50.595Z,99232.17
2018-12-30T14:09:22.875Z,99234.09
2018-12-30T14:11:55.083Z,99231.05
2018-12-30T14:14:27.296Z,99230.63
2018-12-30T14:16:59.499Z,99235.05
2018-12-30T14:19:31.814Z,99229.34
2018-12-30T14:22:04.030Z,99236.76
2018-12-30T14:24:36.275Z,99236.45
2018-12-30T14:27:09.731Z,99230.94
2018-12-30T14:29:41.933Z,99239.73
2018-12-30T14:32:14.146Z,99245.83
2018-12-30T14:34:46.361Z,99246.31
2018-12-30T14:37:18.580Z,99253.28
2018-12-30T14:39:50.798Z,99255.57
2018-12-30T14:42:23.007Z,99257.52
2018-12-30T14:44:55.217Z,99260.55
2018-12-30T14:47:27.420Z,99260.52
2018-12-30T14:49:59.638Z,99264.94
2018-12-30T14:52:31.850Z,99271.89
2018-12-30T14:55:04.355Z,99280.16
2018-12-30T14:57:36.599Z,99283.75
2018-12-30T15:00:10.040Z,99281.73
2018-12-30T15:02:42.355Z,99284.56
2018-12-30T15:05:14.567Z,99289.12
2018-12-30T15:07:46.777Z,99288.16
2018-12-30T15:10:18.988Z,99286.27
2018-12-30T15:12:51.210Z,99291.97
2018-12-30T15:15:23.417Z,99295.02
2018-12-30T15:17:55.644Z,99305.31
2018-12-30T15:20:27.856Z,99305.79
2018-12-30T15:23:00.071Z,99309.33
2018-12-30T15:25:32.360Z,99306.97
2018-12-30T15:28:04.571Z,99309.36
2018-12-30T15:30:36.789Z,99309.69
2018-12-30T15:33:08.993Z,99309.52
2018-12-30T15:35:41.210Z,99312.11
2018-12-30T15:38:13.409Z,99310.63
2018-12-30T15:40:45.631Z,99311.63
2018-12-30T15:43:17.976Z,99311.72
2018-12-30T15:45:50.300Z,99317.05
2018-12-30T15:48:22.498Z,99319.55
2018-12-30T15:50:54.713Z,99319.46
2018-12-30T15:53:26.932Z,99319.12
2018-12-30T15:55:59.248Z,99315.16
2018-12-30T15:58:31.505Z,99313.09
2018-12-30T16:01:03.712Z,99315.83
2018-12-30T16:03:35.921Z,99315.69
2018-12-30T16:06:08.140Z,99313.53
2018-12-30T16:08:40.455Z,99323.13
2018-12-30T16:11:12.690Z,99317.23
2018-12-30T16:13:44.979Z,99315.17
2018-12-30T16:16:17.289Z,99303.48
2018-12-30T16:18:49.608Z,99310.12
2018-12-30T16:21:21.823Z,99308.63
2018-12-30T16:23:54.038Z,99301.13
2018-12-30T16:26:26.370Z,99309.78
2018-12-30T16:28:58.598Z,99309.98
2018-12-30T16:31:30.896Z,99305.22
2018-12-30T16:34:03.115Z,99299.16
2018-12-30T16:36:35.635Z,99311.02
2018-12-30T16:39:09.381Z,99291.00
2018-12-30T16:41:41.691Z,99272.98
2018-12-30T16:44:13.985Z,99290.09
2018-12-30T16:46:46.297Z,99289.64
2018-12-30T16:49:18.509Z,99290.80
2018-12-30T16:51:50.722Z,99306.84
2018-12-30T16:54:23.122Z,99312.59
2018-12-30T16:56:55.382Z,99314.85
2018-12-30T16:59:27.600Z,99315.95
2018-12-30T17:01:59.811Z,99313.75
2018-12-30T17:04:32.024Z,99315.94
2018-12-30T17:07:04.344Z,99325.33
2018-12-30T17:09:36.562Z,99321.09
2018-12-30T17:12:08.772Z,99322.42
2018-12-30T17:14:41.087Z,99317.48
2018-12-30T17:17:13.403Z,99322.50
2018-12-30T17:19:45.615Z,99327.53
2018-12-30T17:22:17.829Z,99326.33
2018-12-30T17:24:50.636Z,99327.52
2018-12-30T17:27:23.032Z,99326.64
2018-12-30T17:29:55.272Z,99338.07
2018-12-30T17:32:27.485Z,99340.98
2018-12-30T17:35:00.004Z,99337.84
2018-12-30T17:37:32.225Z,99342.74
2018-12-30T17:40:04.630Z,99348.13
2018-12-30T17:42:36.849Z,99355.59
2018-12-30T17:45:09.452Z,99344.34
2018-12-30T17:47:41.800Z,99343.46
2018-12-30T17:50:14.149Z,99344.38
2018-12-30T17:52:46.368Z,99334.84
2018-12-30T17:55:18.584Z,99328.16
2018-12-30T17:57:50.849Z,99329.36
2018-12-30T18:00:23.162Z,99325.74
2018-12-30T18:02:55.380Z,99330.80
2018-12-30T18:05:27.675Z,99337.45
2018-12-30T18:07:59.884Z,99336.66
2018-12-30T18:10:32.109Z,99340.59
2018-12-30T18:13:04.433Z,99349.73
2018-12-30T18:15:36.741Z,99351.42
2018-12-30T18:18:09.055Z,99353.86
2018-12-30T18:20:41.275Z,99348.06
2018-12-30T18:23:13.584Z,99343.54
2018-12-30T18:25:45.995Z,99350.69
2018-12-30T18:28:18.202Z,99346.26
2018-12-30T18:30:50.521Z,99346.69
2018-12-30T18:33:22.740Z,99351.70
2018-12-30T18:35:54.943Z,99360.12
2018-12-30T18:38:27.150Z,99362.97
2018-12-30T18:40:59.357Z,99355.75
2018-12-30T18:43:31.663Z,99345.36
2018-12-30T18:46:03.881Z,99353.56
2018-12-30T18:48:36.093Z,99353.25
2018-12-30T18:51:09.278Z,99357.56
2018-12-30T18:53:41.495Z,99370.05
2018-12-30T18:56:13.805Z,99363.63
2018-12-30T18:58:46.059Z,99365.63
2018-12-30T19:01:18.272Z,99363.93
2018-12-30T19:03:50.489Z,99358.95
2018-12-30T19:06:22.804Z,99362.29
2018-12-30T19:08:55.030Z,99357.95
2018-12-30T19:11:27.237Z,99361.89
2018-12-30T19:13:59.536Z,99363.14
2018-12-30T19:16:31.748Z,99361.39
2018-12-30T19:19:04.061Z,99353.58
2018-12-30T19:21:36.273Z,99359.11
2018-12-30T19:24:08.611Z,99360.29
2018-12-30T19:26:40.831Z,99359.23
2018-12-30T19:29:13.048Z,99352.81
2018-12-30T19:31:45.341Z,99349.76
2018-12-30T19:34:17.661Z,99351.53
2018-12-30T19:36:49.870Z,99354.66
2018-12-30T19:39:22.093Z,99364.99
2018-12-30T19:41:54.307Z,99360.59
2018-12-30T19:44:26.526Z,99363.34
2018-12-30T19:46:58.737Z,99367.78
2018-12-30T19:49:30.961Z,99368.09
2018-12-30T19:52:03.173Z,99366.18
2018-12-30T19:54:35.390Z,99368.64
2018-12-30T19:57:07.759Z,99378.59
2018-12-30T19:59:40.072Z,99379.94
2018-12-30T20:02:12.282Z,99383.36
2018-12-30T20:04:44.506Z,99386.28
2018-12-30T20:07:16.722Z,99374.56
2018-12-30T20:09:49.041Z,99379.23
2018-12-30T20:12:21.251Z,99374.60
2018-12-30T20:14:53.472Z,99370.26
2018-12-30T20:17:25.682Z,99365.06
2018-12-30T20:19:58.208Z,99362.78
2018-12-30T20:22:30.432Z,99357.02
2018-12-30T20:25:02.763Z,99357.29
2018-12-30T20:27:34.973Z,99352.53
2018-12-30T20:30:08.324Z,99347.02
2018-12-30T20:32:40.540Z,99341.58
2018-12-30T20:35:12.844Z,99337.67
2018-12-30T20:37:45.062Z,99343.95
2018-12-30T20:40:17.285Z,99348.34
2018-12-30T20:42:49.495Z,99351.22
2018-12-30T20:45:21.818Z,99357.69
2018-12-30T20:47:54.134Z,99357.89
2018-12-30T20:50:26.350Z,99364.15
2018-12-30T20:52:58.561Z,99367.53
2018-12-30T20:55:30.782Z,99363.77
2018-12-30T20:58:03.047Z,99360.76
2018-12-30T21:00:35.262Z,99362.30
2018-12-30T21:03:07.702Z,99362.97
2018-12-30T21:05:39.947Z,99356.01
2018-12-30T21:08:12.227Z,99343.17
2018-12-30T21:10:44.548Z,99341.73
2018-12-30T21:13:16.758Z,99338.37
2018-12-30T21:15:48.978Z,99333.05
2018-12-30T21:18:21.190Z,99335.70
2018-12-30T21:20:53.409Z,99338.42
2018-12-30T21:23:25.646Z,99337.20
2018-12-30T21:25:57.874Z,99338.61
2018-12-30T21:28:30.075Z,99332.63
2018-12-30T21:31:02.290Z,99331.08
2018-12-30T21:33:34.606Z,99328.86
2018-12-30T21:36:07.029Z,99336.61
2018-12-30T21:38:39.236Z,99338.79
2018-12-30T21:41:11.539Z,99341.08
2018-12-30T21:43:43.829Z,99344.86
2018-12-30T21:46:16.047Z,99343.72
2018-12-30T21:48:48.257Z,99351.22
2018-12-30T21:51:20.575Z,99349.52
2018-12-30T21:53:52.792Z,99351.75
2018-12-30T21:56:25.206Z,99349.30
2018-12-30T21:58:57.524Z,99346.96
2018-12-30T22:01:29.741Z,99352.08
2018-12-30T22:04:01.950Z,99354.19
2018-12-30T22:06:34.165Z,99346.05
2018-12-30T22:09:08.267Z,99354.80
2018-12-30T22:11:40.476Z,99358.95
2018-12-30T22:14:12.649Z,99361.10
2018-12-30T22:16:45.060Z,99359.30
2018-12-30T22:19:17.220Z,99361.92
2018-12-30T22:21:49.438Z,99362.36
2018-12-30T22:24:21.789Z,99358.18
2018-12-30T22:26:54.001Z,99353.95
2018-12-30T22:29:26.170Z,99358.34
2018-12-30T22:31:58.485Z,99353.14
2018-12-30T22:34:30.754Z,99341.81
2018-12-30T22:37:03.074Z,99343.28
2018-12-30T22:39:35.238Z,99341.78
2018-12-30T22:42:07.458Z,99346.59
2018-12-30T22:44:39.622Z,99346.23
2018-12-30T22:47:11.942Z,99347.03
2018-12-30T22:49:44.112Z,99345.64
2018-12-30T22:52:16.434Z,99348.52
2018-12-30T22:54:48.601Z,99352.27
2018-12-30T22:57:20.861Z,99352.47
2018-12-30T22:59:53.030Z,99349.72
2018-12-30T23:02:25.240Z,99357.59
2018-12-30T23:04:57.528Z,99349.48
2018-12-30T23:07:29.740Z,99347.59
2018-12-30T23:10:01.903Z,99349.61
2018-12-30T23:12:34.122Z,99342.88
2018-12-30T23:15:06.598Z,99354.45
2018-12-30T23:17:38.963Z,99354.38
2018-12-30T23:20:11.336Z,99352.13
2018-12-30T23:22:43.549Z,99349.66
2018-12-30T23:25:15.717Z,99340.00
2018-12-30T23:27:47.934Z,99347.37
2018-12-30T23:30:20.205Z,99350.86
2018-12-30T23:32:52.410Z,99346.77
2018-12-30T23:35:24.617Z,99355.59
2018-12-30T23:37:56.838Z,99353.81
2018-12-30T23:40:29.005Z,99355.87
2018-12-30T23:43:01.321Z,99358.27
2018-12-30T23:45:33.484Z,99360.19
2018-12-30T23:48:05.796Z,99355.99
2018-12-30T23:50:37.961Z,99357.29
2018-12-30T23:53:11.119Z,99356.97
2018-12-30T23:55:43.468Z,99359.57
2018-12-30T23:58:15.934Z,99356.35
